Terminal Aerodrome Forecast
Issued by NWS

Home | Current Version | Previous Version | Text Only | Print | Product List | Glossary On
Versions: 1 2 3 4 5 6 7 8 9 10 11 12 13 14 15
000
FTUS43 KGRB 291136
TAFAUW
TAF
KAUW 291136Z 2912/3012 02006KT P6SM SKC
     FM291300 03007KT P6SM FEW013
     FM291600 03009KT P6SM SKC
     FM291700 05009G14KT P6SM SKC
     FM292100 05007KT P6SM SKC
     FM300600 04005KT P6SM SCT200=

USA.gov is the U.S. government's official web portal to all federal, state and local government web resources and services.